Terminal Aerodrome Forecast
Issued by NWS Oklahoma City, OK

Home | Current Version | Previous Version | Text Only | Print | Product List | Glossary On
Versions: 1 2 3 4 5 6 7 8 9 10 11 12
000
FTUS44 KOUN 260520
TAFOUN
TAF
KOUN 260520Z 2606/2706 03005KT P6SM VCSH FEW006 SCT015 BKN050
      TEMPO 2608/2612 BKN006
     FM261200 03007KT 4SM -RA OVC012
     FM270000 04008KT P6SM VCSH OVC007=

USA.gov is the U.S. government's official web portal to all federal, state and local government web resources and services.